Time;durP1;ratioP1;P1;durP2;ratioP2;P2;SDS_P1;SDS_P2;PMS_P1;PMS_P2;Temp;Humidity;BMP_temperature;BMP_pressure;BME280_temperature;BME280_humidity;BME280_pressure;Samples;Min_cycle;Max_cycle;Signal;HPM_P1;HPM_P2
2021/11/26 00:01:11;;;;;;;25.80;12.15;;;;;;;4.14;89.67;100353.25;5020014;28;20030;-82
2021/11/26 00:03:37;;;;;;;28.80;11.27;;;;;;;4.12;89.13;100355.28;5020095;28;20033;-82
2021/11/26 00:06:02;;;;;;;31.30;11.70;;;;;;;4.10;89.21;100352.03;5028437;28;20480;-83
2021/11/26 00:08:28;;;;;;;30.35;13.05;;;;;;;4.05;89.24;100343.91;5024068;28;20026;-82
2021/11/26 00:10:53;;;;;;;27.83;10.80;;;;;;;4.05;89.49;100343.91;5024655;28;20029;-82
2021/11/26 00:13:20;;;;;;;29.30;11.07;;;;;;;4.09;89.30;100340.63;5021167;28;20022;-82
2021/11/26 00:15:45;;;;;;;24.58;11.52;;;;;;;4.15;88.71;100331.00;5025768;28;20503;-82
2021/11/26 00:18:19;;;;;;;23.45;11.80;;;;;;;4.19;88.68;100330.34;5022346;28;20017;-83
2021/11/26 00:20:47;;;;;;;23.05;11.95;;;;;;;4.17;88.41;100336.91;5025741;28;20047;-83
2021/11/26 00:23:14;;;;;;;26.17;10.93;;;;;;;4.15;88.25;100334.47;5024704;28;20037;-83
2021/11/26 00:25:40;;;;;;;23.80;10.98;;;;;;;4.30;88.11;100334.13;5021163;28;20546;-82
2021/11/26 00:28:06;;;;;;;21.30;10.00;;;;;;;4.28;87.84;100341.50;5027973;28;20057;-82
2021/11/26 00:30:32;;;;;;;28.20;10.65;;;;;;;4.30;87.84;100330.66;5021329;28;20064;-82
2021/11/26 00:32:57;;;;;;;23.95;9.82;;;;;;;4.22;87.37;100337.88;5019034;28;20041;-83
2021/11/26 00:35:23;;;;;;;25.40;11.23;;;;;;;4.15;88.15;100331.00;5024326;28;20079;-82
2021/11/26 00:37:48;;;;;;;26.80;10.57;;;;;;;4.07;88.06;100333.91;5021710;28;20130;-83
2021/11/26 00:40:15;;;;;;;30.88;11.63;;;;;;;3.95;88.48;100328.50;5027027;28;20037;-82
2021/11/26 00:42:42;;;;;;;24.35;10.93;;;;;;;3.91;88.64;100320.16;5023994;28;20502;-83
2021/11/26 00:45:15;;;;;;;26.85;10.82;;;;;;;3.87;88.71;100326.91;5027076;28;20093;-83
2021/11/26 00:47:41;;;;;;;22.90;10.35;;;;;;;3.88;88.86;100325.06;5035887;28;20447;-84
2021/11/26 00:50:09;;;;;;;24.17;10.25;;;;;;;3.97;88.64;100318.50;5022783;28;20037;-82
2021/11/26 00:52:34;;;;;;;23.92;9.73;;;;;;;4.13;88.59;100327.72;5026084;28;20033;-83
2021/11/26 00:55:00;;;;;;;23.25;10.77;;;;;;;4.17;87.75;100328.94;5022456;28;20032;-82
2021/11/26 00:57:26;;;;;;;23.27;9.70;;;;;;;4.29;87.57;100329.03;5022950;28;20128;-83
2021/11/26 00:59:52;;;;;;;29.60;10.65;;;;;;;4.37;87.14;100324.28;5025938;28;20026;-82
2021/11/26 01:02:18;;;;;;;23.05;9.35;;;;;;;4.40;86.77;100325.69;5021905;28;21419;-82
2021/11/26 01:04:43;;;;;;;20.63;9.30;;;;;;;4.42;86.68;100323.63;5028297;28;20030;-83
2021/11/26 01:07:09;;;;;;;20.85;8.88;;;;;;;4.47;86.54;100321.13;5020036;28;20060;-82
2021/11/26 01:09:35;;;;;;;24.15;9.27;;;;;;;4.42;86.20;100324.44;5026602;28;20029;-83
2021/11/26 01:12:02;;;;;;;22.42;9.82;;;;;;;4.35;85.98;100326.34;5018994;28;20022;-83
2021/11/26 01:14:27;;;;;;;22.70;9.30;;;;;;;4.43;86.31;100322.59;5026055;28;20017;-82
2021/11/26 01:16:53;;;;;;;24.73;10.35;;;;;;;4.36;86.11;100316.56;5018573;28;20037;-82
2021/11/26 01:19:20;;;;;;;24.17;9.52;;;;;;;4.34;86.34;100311.47;5023471;28;20729;-82
2021/11/26 01:21:46;;;;;;;25.65;10.05;;;;;;;4.45;86.16;100313.38;5021089;28;20196;-83
2021/11/26 01:24:12;;;;;;;29.58;10.75;;;;;;;4.41;86.47;100319.34;5028198;28;20032;-83
2021/11/26 01:26:38;;;;;;;25.15;10.38;;;;;;;4.36;86.36;100311.25;5024566;28;20033;-82
2021/11/26 01:29:04;;;;;;;23.30;9.75;;;;;;;4.37;86.63;100315.53;5026682;28;20037;-82
2021/11/26 01:31:29;;;;;;;20.35;8.52;;;;;;;4.50;86.09;100307.44;5024667;28;20030;-84
2021/11/26 01:33:55;;;;;;;21.33;10.10;;;;;;;4.53;85.42;100309.66;5024616;28;20041;-82
2021/11/26 01:36:21;;;;;;;23.52;10.02;;;;;;;4.62;85.34;100312.81;5025940;28;20030;-83
2021/11/26 01:38:47;;;;;;;22.38;10.05;;;;;;;4.65;85.01;100304.41;5023073;28;20029;-83
2021/11/26 01:41:13;;;;;;;22.88;8.27;;;;;;;4.55;84.61;100296.97;5031180;28;20542;-83
2021/11/26 01:43:39;;;;;;;18.95;8.63;;;;;;;4.54;84.71;100298.00;5045257;28;20025;-82
2021/11/26 01:46:08;;;;;;;19.20;7.20;;;;;;;4.60;84.38;100293.66;5023934;28;20029;-83
2021/11/26 01:48:34;;;;;;;20.95;8.68;;;;;;;4.58;84.05;100288.59;5028216;28;20511;-82
2021/11/26 01:50:59;;;;;;;23.35;8.68;;;;;;;4.56;83.82;100285.34;5027036;28;20124;-83
2021/11/26 01:53:25;;;;;;;23.63;7.43;;;;;;;4.55;83.51;100283.72;5024857;28;20121;-83
2021/11/26 01:55:52;;;;;;;24.75;10.07;;;;;;;4.46;84.19;100280.53;5024163;28;20554;-82
2021/11/26 01:58:18;;;;;;;21.30;8.88;;;;;;;4.52;84.12;100268.25;5029885;28;20105;-83
2021/11/26 02:00:47;;;;;;;20.02;9.15;;;;;;;4.46;84.32;100277.88;5024587;28;20061;-83
2021/11/26 02:03:13;;;;;;;22.92;9.73;;;;;;;4.43;84.40;100267.69;5025072;28;20055;-82
2021/11/26 02:05:39;;;;;;;17.88;7.95;;;;;;;4.46;83.82;100261.16;5024773;28;20591;-82
2021/11/26 02:08:07;;;;;;;17.77;7.65;;;;;;;4.43;84.21;100266.88;5020593;28;20040;-83
2021/11/26 02:10:32;;;;;;;20.42;8.23;;;;;;;4.46;84.27;100269.91;5024268;28;20025;-83
2021/11/26 02:12:58;;;;;;;19.40;8.15;;;;;;;4.47;83.92;100268.88;5021587;28;20121;-83
2021/11/26 02:15:28;;;;;;;20.55;7.75;;;;;;;4.48;84.07;100253.78;5023752;28;20021;-82
2021/11/26 02:17:56;;;;;;;21.17;8.20;;;;;;;4.46;84.03;100256.66;5022024;28;20498;-83
2021/11/26 02:20:26;;;;;;;17.23;7.75;;;;;;;4.45;83.89;100249.72;5023078;28;20361;-83
2021/11/26 02:22:53;;;;;;;19.30;7.88;;;;;;;4.47;84.04;100252.97;5038872;28;20052;-83
2021/11/26 02:25:19;;;;;;;17.85;8.52;;;;;;;4.43;83.83;100243.03;5036942;28;20026;-83
2021/11/26 02:27:45;;;;;;;17.50;7.22;;;;;;;4.48;83.93;100246.63;5026434;28;20048;-83
2021/11/26 02:30:21;;;;;;;20.27;8.90;;;;;;;4.40;83.68;100236.31;5029491;28;20153;-83
2021/11/26 02:32:56;;;;;;;23.58;8.77;;;;;;;4.40;83.76;100252.22;5026642;28;20029;-82
2021/11/26 02:35:23;;;;;;;22.42;8.15;;;;;;;4.41;83.47;100240.59;5028702;28;20029;-82
2021/11/26 02:37:49;;;;;;;22.58;8.07;;;;;;;4.39;83.42;100240.00;5027425;28;20032;-83
2021/11/26 02:40:17;;;;;;;19.83;8.48;;;;;;;4.39;84.02;100234.69;5039106;28;20030;-83
2021/11/26 02:42:43;;;;;;;20.92;7.93;;;;;;;4.44;84.11;100236.69;5021911;28;20025;-82
2021/11/26 02:45:11;;;;;;;20.52;8.60;;;;;;;4.39;83.83;100239.19;5024021;28;20398;-82
2021/11/26 02:47:38;;;;;;;19.75;7.90;;;;;;;4.41;83.99;100229.97;5044960;28;20121;-82
2021/11/26 02:50:06;;;;;;;21.45;8.60;;;;;;;4.37;84.19;100235.94;5021842;28;20676;-82
2021/11/26 02:52:33;;;;;;;21.77;7.95;;;;;;;4.39;84.08;100228.59;5026294;28;20030;-82
2021/11/26 02:54:59;;;;;;;22.88;8.57;;;;;;;4.37;83.60;100230.66;5024320;28;20033;-82
2021/11/26 02:57:25;;;;;;;21.08;8.50;;;;;;;4.40;83.74;100228.34;5021961;28;20401;-84
2021/11/26 02:59:50;;;;;;;17.65;8.15;;;;;;;4.46;83.88;100221.34;5029500;28;20518;-83
2021/11/26 03:02:16;;;;;;;22.60;8.90;;;;;;;4.44;83.33;100224.22;5024424;28;20459;-83
2021/11/26 03:04:41;;;;;;;21.75;7.68;;;;;;;4.47;82.92;100223.78;5024081;28;20634;-82
2021/11/26 03:07:09;;;;;;;21.00;8.27;;;;;;;4.46;82.91;100214.19;5024512;28;20076;-83
2021/11/26 03:09:36;;;;;;;16.40;7.55;;;;;;;4.40;82.82;100219.59;5025054;28;20095;-84
2021/11/26 03:12:02;;;;;;;15.38;7.57;;;;;;;4.44;82.95;100210.97;5028831;28;20048;-83
2021/11/26 03:14:27;;;;;;;17.52;6.28;;;;;;;4.45;82.71;100212.59;5020180;28;20045;-83
2021/11/26 03:16:53;;;;;;;17.33;6.97;;;;;;;4.46;82.64;100214.19;5023042;28;20061;-82
2021/11/26 03:19:19;;;;;;;20.95;7.82;;;;;;;4.46;82.66;100218.69;5021102;28;20506;-83
2021/11/26 03:21:45;;;;;;;20.48;9.32;;;;;;;4.50;82.90;100211.94;5022714;28;20407;-82
2021/11/26 03:24:10;;;;;;;18.40;8.82;;;;;;;4.49;83.05;100219.09;5018708;28;20025;-83
2021/11/26 03:26:36;;;;;;;17.95;8.10;;;;;;;4.50;83.03;100212.75;5023558;28;20071;-84
2021/11/26 03:29:01;;;;;;;21.80;8.55;;;;;;;4.51;83.35;100213.56;5023355;28;20022;-82
2021/11/26 03:31:27;;;;;;;20.25;8.27;;;;;;;4.53;82.80;100214.16;5026679;28;20030;-83
2021/11/26 03:33:53;;;;;;;22.38;9.73;;;;;;;4.48;83.30;100211.31;5024152;28;20021;-83
2021/11/26 03:36:18;;;;;;;21.25;9.38;;;;;;;4.46;83.02;100216.03;5025875;28;20029;-83
2021/11/26 03:38:44;;;;;;;20.80;8.55;;;;;;;4.40;83.34;100209.78;5021241;28;20026;-83
2021/11/26 03:41:11;;;;;;;23.33;9.60;;;;;;;4.31;83.87;100218.25;5030347;28;20022;-82
2021/11/26 03:43:36;;;;;;;21.55;9.52;;;;;;;4.42;83.79;100210.38;5029149;28;20097;-82
2021/11/26 03:46:02;;;;;;;22.40;8.85;;;;;;;4.45;82.95;100215.25;5030128;28;20120;-82
2021/11/26 03:48:27;;;;;;;21.65;9.27;;;;;;;4.45;83.29;100212.59;5025234;28;20029;-83
2021/11/26 03:50:53;;;;;;;19.58;7.35;;;;;;;4.35;83.56;100214.16;5024944;28;20030;-82
2021/11/26 03:53:18;;;;;;;30.48;7.88;;;;;;;4.33;83.50;100224.97;5024877;28;20029;-82
2021/11/26 03:55:44;;;;;;;19.15;7.93;;;;;;;4.24;83.08;100220.97;5023554;28;20026;-82
2021/11/26 03:58:09;;;;;;;14.77;6.95;;;;;;;4.28;83.11;100214.19;5025990;28;20044;-82
2021/11/26 04:00:35;;;;;;;16.80;7.22;;;;;;;4.24;82.94;100213.03;5028385;28;20033;-82
2021/11/26 04:03:01;;;;;;;18.98;7.80;;;;;;;4.22;83.18;100207.13;5024365;28;20113;-83
2021/11/26 04:05:26;;;;;;;16.92;6.55;;;;;;;4.23;82.82;100206.09;5023144;28;20392;-83
2021/11/26 04:07:52;;;;;;;19.92;7.45;;;;;;;4.19;82.68;100204.91;5022439;28;20038;-83
2021/11/26 04:10:18;;;;;;;15.07;6.93;;;;;;;4.04;82.40;100207.91;5030020;28;20083;-82
2021/11/26 04:12:45;;;;;;;17.25;6.90;;;;;;;3.92;82.18;100207.00;5024851;28;20033;-83
2021/11/26 04:15:13;;;;;;;19.88;6.50;;;;;;;3.82;82.18;100201.38;5041909;28;20091;-82
2021/11/26 04:17:40;;;;;;;17.15;7.28;;;;;;;3.79;82.93;100189.38;5026434;28;20056;-82
2021/11/26 04:20:08;;;;;;;18.20;6.10;;;;;;;3.66;83.17;100189.50;5020637;28;20029;-83
2021/11/26 04:22:34;;;;;;;19.27;6.65;;;;;;;3.76;83.11;100186.34;5024883;28;20032;-83
2021/11/26 04:24:59;;;;;;;17.85;7.03;;;;;;;3.72;83.01;100182.50;5027390;28;20030;-83
2021/11/26 04:27:25;;;;;;;16.73;6.80;;;;;;;3.74;82.87;100189.19;5024188;28;20029;-83
2021/11/26 04:29:50;;;;;;;15.75;6.55;;;;;;;3.79;82.83;100189.38;5023170;28;20029;-84
2021/11/26 04:32:16;;;;;;;16.23;6.30;;;;;;;3.80;83.13;100175.09;5024143;28;20383;-83
2021/11/26 04:34:44;;;;;;;17.48;6.47;;;;;;;3.80;83.19;100174.31;5024815;28;20028;-82
2021/11/26 04:37:10;;;;;;;19.98;6.88;;;;;;;3.85;82.75;100177.91;5025755;28;20035;-82
2021/11/26 04:39:36;;;;;;;16.67;6.50;;;;;;;3.87;82.78;100172.38;5027124;28;21307;-83
2021/11/26 04:42:02;;;;;;;17.77;7.28;;;;;;;3.87;83.33;100167.09;5024853;28;20558;-82
2021/11/26 04:44:28;;;;;;;18.42;7.43;;;;;;;3.75;83.37;100166.97;5023438;28;20370;-83
2021/11/26 04:46:53;;;;;;;15.25;6.32;;;;;;;3.87;83.65;100167.91;5025824;28;20032;-82
2021/11/26 04:49:19;;;;;;;20.30;7.00;;;;;;;3.85;83.80;100169.97;5023990;28;20032;-83
2021/11/26 04:51:44;;;;;;;19.73;7.00;;;;;;;3.93;83.83;100161.72;5023317;28;20036;-82
2021/11/26 04:54:10;;;;;;;17.35;7.20;;;;;;;4.03;83.87;100160.41;5023475;28;20104;-83
2021/11/26 04:56:35;;;;;;;20.17;7.97;;;;;;;4.12;83.45;100164.38;5024224;28;20060;-83
2021/11/26 04:59:01;;;;;;;18.50;7.75;;;;;;;4.17;83.67;100161.91;5024518;28;20365;-82
2021/11/26 05:01:26;;;;;;;23.80;8.27;;;;;;;4.12;83.84;100167.03;5024740;28;20025;-83
2021/11/26 05:03:52;;;;;;;19.23;7.45;;;;;;;4.26;83.33;100163.22;5024536;28;20656;-83
2021/11/26 05:06:19;;;;;;;18.10;8.30;;;;;;;4.24;83.50;100157.34;5023184;28;20025;-82
2021/11/26 05:08:44;;;;;;;21.02;8.50;;;;;;;4.22;83.74;100160.22;5036985;28;20308;-83
2021/11/26 05:11:10;;;;;;;18.77;7.57;;;;;;;4.17;84.13;100154.75;5023142;28;20451;-83
2021/11/26 05:13:41;;;;;;;24.60;7.78;;;;;;;4.24;83.68;100165.28;5026769;28;20080;-83
2021/11/26 05:16:07;;;;;;;28.05;8.15;;;;;;;4.29;83.55;100169.91;5030549;28;20391;-82
2021/11/26 05:18:32;;;;;;;24.15;7.38;;;;;;;4.23;84.13;100159.16;5028997;28;20032;-82
2021/11/26 05:20:58;;;;;;;16.52;7.50;;;;;;;4.25;83.68;100159.75;5028860;28;20026;-83
2021/11/26 05:23:25;;;;;;;21.27;8.15;;;;;;;4.31;83.63;100157.25;5029210;28;20032;-83
2021/11/26 05:25:51;;;;;;;21.65;6.75;;;;;;;4.33;83.51;100155.22;5026611;28;20117;-83
2021/11/26 05:28:18;;;;;;;13.98;6.45;;;;;;;4.36;83.25;100160.88;5025978;28;20021;-83
2021/11/26 05:30:44;;;;;;;27.23;7.30;;;;;;;4.39;83.21;100155.13;5023813;28;20096;-83
2021/11/26 05:33:11;;;;;;;16.25;6.85;;;;;;;4.38;82.75;100161.47;5026272;28;20057;-83
2021/11/26 05:35:37;;;;;;;18.13;7.07;;;;;;;4.30;82.92;100153.78;5025415;28;20052;-83
2021/11/26 05:38:04;;;;;;;21.65;7.25;;;;;;;4.30;83.14;100164.41;5029123;28;20032;-82
2021/11/26 05:40:30;;;;;;;17.63;6.53;;;;;;;4.28;83.20;100153.19;5028618;28;20083;-82
2021/11/26 05:42:55;;;;;;;19.88;7.25;;;;;;;4.24;82.76;100162.63;5029369;28;20428;-83
2021/11/26 05:45:21;;;;;;;16.00;6.70;;;;;;;4.30;82.83;100155.63;5029736;28;20113;-83
2021/11/26 05:47:47;;;;;;;20.30;8.23;;;;;;;4.22;83.01;100154.09;5023654;28;20064;-83
2021/11/26 05:50:15;;;;;;;20.85;7.18;;;;;;;4.38;82.84;100152.69;5026680;28;20087;-83
2021/11/26 05:52:41;;;;;;;19.20;6.55;;;;;;;4.41;82.53;100145.09;5022121;28;20022;-83
2021/11/26 05:55:10;;;;;;;17.55;6.57;;;;;;;4.41;82.18;100142.44;5024372;28;20027;-83
2021/11/26 05:57:36;;;;;;;21.15;6.93;;;;;;;4.41;82.53;100139.00;5028814;28;20030;-83
2021/11/26 06:00:09;;;;;;;22.45;7.40;;;;;;;4.39;82.25;100141.06;5024031;28;20046;-83
2021/11/26 06:02:35;;;;;;;21.15;7.20;;;;;;;4.44;82.15;100130.56;5023006;28;20029;-83
2021/11/26 06:05:01;;;;;;;17.52;7.30;;;;;;;4.49;82.12;100136.84;5020887;28;20075;-83
2021/11/26 06:07:26;;;;;;;17.85;6.47;;;;;;;4.42;82.45;100136.09;5021441;28;20025;-82
2021/11/26 06:09:52;;;;;;;16.23;7.30;;;;;;;4.47;82.34;100135.44;5035463;28;20029;-83
2021/11/26 06:12:18;;;;;;;15.63;6.70;;;;;;;4.47;82.28;100130.94;5040755;28;20044;-83
2021/11/26 06:14:43;;;;;;;18.67;7.13;;;;;;;4.33;82.65;100134.81;5019907;28;20395;-82
2021/11/26 06:17:09;;;;;;;17.25;6.80;;;;;;;4.39;82.45;100136.56;5025873;28;20499;-83
2021/11/26 06:19:34;;;;;;;16.55;6.80;;;;;;;4.43;82.29;100135.06;5026693;28;20087;-83
2021/11/26 06:22:00;;;;;;;18.92;7.10;;;;;;;4.42;82.49;100138.75;5020848;28;20113;-83
2021/11/26 06:24:26;;;;;;;16.17;6.80;;;;;;;4.48;82.38;100143.16;5019230;28;20026;-83
2021/11/26 06:26:52;;;;;;;13.77;6.57;;;;;;;4.44;82.59;100136.69;5025910;28;20098;-83
2021/11/26 06:29:17;;;;;;;18.08;7.65;;;;;;;4.45;82.85;100140.97;5026656;28;20026;-83
2021/11/26 06:31:42;;;;;;;16.92;6.95;;;;;;;4.39;82.88;100139.22;5026807;28;20399;-82
2021/11/26 06:34:08;;;;;;;21.73;8.68;;;;;;;4.44;83.05;100131.38;5021300;28;20029;-83
2021/11/26 06:36:34;;;;;;;21.45;7.65;;;;;;;4.48;82.84;100126.44;5022980;28;20049;-82
2021/11/26 06:39:01;;;;;;;24.48;7.90;;;;;;;4.43;82.53;100124.47;5026562;28;20384;-82
2021/11/26 06:41:27;;;;;;;22.05;8.02;;;;;;;4.41;82.93;100115.91;5025235;28;20028;-82
2021/11/26 06:43:52;;;;;;;17.67;7.78;;;;;;;4.37;83.38;100120.06;5027335;28;20396;-83
2021/11/26 06:46:18;;;;;;;16.70;7.85;;;;;;;4.35;83.05;100122.13;5028030;28;20025;-85
2021/11/26 06:48:43;;;;;;;14.43;6.57;;;;;;;4.41;83.06;100126.53;5029731;28;20025;-84
2021/11/26 06:51:09;;;;;;;15.60;7.32;;;;;;;4.42;83.13;100117.53;5022781;28;20392;-84
2021/11/26 06:53:35;;;;;;;18.55;7.60;;;;;;;4.41;82.94;100115.13;5025280;28;20036;-84
2021/11/26 06:56:02;;;;;;;14.63;6.88;;;;;;;4.37;83.38;100113.94;5023441;28;20017;-85
2021/11/26 06:58:28;;;;;;;17.40;6.20;;;;;;;4.30;83.39;100118.50;5015360;28;20055;-85
2021/11/26 07:00:53;;;;;;;19.85;6.70;;;;;;;4.31;83.65;100110.34;5018371;28;20108;-85
2021/11/26 07:03:19;;;;;;;20.85;7.65;;;;;;;4.26;83.40;100118.13;5019384;28;20033;-85
2021/11/26 07:05:44;;;;;;;17.70;7.22;;;;;;;4.38;83.48;100115.56;5018076;28;20892;-84
2021/11/26 07:08:10;;;;;;;18.38;7.45;;;;;;;4.41;83.38;100115.91;5018244;28;20029;-84
2021/11/26 07:10:35;;;;;;;20.60;8.35;;;;;;;4.31;83.98;100113.00;5018255;28;20025;-83
2021/11/26 07:13:01;;;;;;;23.33;8.15;;;;;;;4.36;84.38;100121.09;5013646;28;20040;-83
2021/11/26 07:15:26;;;;;;;23.52;8.98;;;;;;;4.40;84.35;100118.81;5016202;28;20033;-84
2021/11/26 07:17:52;;;;;;;19.67;9.20;;;;;;;4.41;84.41;100121.22;5017914;28;20034;-83
2021/11/26 07:20:18;;;;;;;22.08;8.35;;;;;;;4.40;84.57;100106.34;5020160;28;20127;-83
2021/11/26 07:22:44;;;;;;;18.90;8.40;;;;;;;4.40;84.11;100111.66;5019969;28;20488;-83
2021/11/26 07:25:10;;;;;;;22.95;7.93;;;;;;;4.43;84.40;100107.75;5024621;28;20032;-83
2021/11/26 07:27:36;;;;;;;16.10;7.20;;;;;;;4.52;84.13;100104.56;5024881;28;20072;-83
2021/11/26 07:30:03;;;;;;;22.52;7.43;;;;;;;4.56;83.78;100102.28;5024553;28;20026;-83
2021/11/26 07:32:29;;;;;;;18.77;7.22;;;;;;;4.49;83.97;100102.38;5035050;28;20100;-83
2021/11/26 07:34:54;;;;;;;14.63;7.07;;;;;;;4.51;83.93;100110.91;5027463;28;20116;-83
2021/11/26 07:37:20;;;;;;;14.57;7.00;;;;;;;4.53;84.34;100102.72;5014449;28;20025;-83
2021/11/26 07:39:46;;;;;;;16.63;7.05;;;;;;;4.62;83.90;100100.56;5022227;28;20419;-84
2021/11/26 07:42:12;;;;;;;15.63;7.60;;;;;;;4.68;83.93;100097.03;5015474;28;20033;-83
2021/11/26 07:44:41;;;;;;;19.15;7.30;;;;;;;4.64;83.27;100095.84;5023034;28;20032;-83
2021/11/26 07:47:11;;;;;;;15.32;6.35;;;;;;;4.65;83.29;100100.09;5019338;28;20030;-83
2021/11/26 07:49:37;;;;;;;18.42;7.50;;;;;;;4.63;83.11;100096.88;5021510;28;20026;-83
2021/11/26 07:52:03;;;;;;;24.20;7.30;;;;;;;4.62;83.35;100089.94;5021299;28;20021;-82
2021/11/26 07:54:29;;;;;;;14.35;6.40;;;;;;;4.71;82.83;100086.75;5017799;28;20018;-83
2021/11/26 07:56:55;;;;;;;12.88;6.53;;;;;;;4.76;82.51;100091.38;5017174;28;20036;-83
2021/11/26 07:59:21;;;;;;;14.77;6.35;;;;;;;4.76;82.40;100075.47;5014869;28;20042;-84
2021/11/26 08:01:47;;;;;;;15.85;6.28;;;;;;;4.83;82.40;100081.47;5018141;28;20030;-84
2021/11/26 08:04:15;;;;;;;16.13;7.07;;;;;;;4.93;82.08;100081.75;5017274;28;20025;-84
2021/11/26 08:06:45;;;;;;;13.75;7.28;;;;;;;4.94;81.58;100071.94;5017911;28;20026;-83
2021/11/26 08:09:11;;;;;;;14.30;6.80;;;;;;;4.91;80.77;100081.16;5012618;28;20029;-83
2021/11/26 08:11:36;;;;;;;17.50;6.82;;;;;;;4.88;80.96;100076.31;5014360;28;20064;-83
2021/11/26 08:14:02;;;;;;;16.13;6.72;;;;;;;4.82;81.20;100079.84;5010994;28;20026;-83
2021/11/26 08:16:28;;;;;;;12.77;6.28;;;;;;;4.79;81.24;100081.13;5009640;28;20026;-84
2021/11/26 08:18:53;;;;;;;17.67;6.75;;;;;;;4.81;80.28;100079.06;5012642;28;20034;-84
2021/11/26 08:21:19;;;;;;;19.02;7.10;;;;;;;4.72;80.29;100074.31;5013928;28;20402;-83
2021/11/26 08:23:44;;;;;;;15.55;6.38;;;;;;;4.79;80.24;100077.66;5014581;28;20029;-83
2021/11/26 08:26:10;;;;;;;17.83;6.35;;;;;;;4.96;80.19;100072.50;5012103;28;20206;-82
2021/11/26 08:28:36;;;;;;;18.50;6.30;;;;;;;4.93;80.06;100078.28;5013376;28;20551;-84
2021/11/26 08:31:02;;;;;;;15.25;5.63;;;;;;;4.92;79.73;100084.63;5018165;28;20040;-83
2021/11/26 08:33:29;;;;;;;16.52;6.00;;;;;;;4.77;79.73;100083.19;5011938;28;20032;-84
2021/11/26 08:35:55;;;;;;;20.98;7.03;;;;;;;4.91;79.86;100072.41;5011956;28;20052;-83
2021/11/26 08:38:21;;;;;;;12.32;6.07;;;;;;;4.97;80.02;100069.63;5014922;28;20032;-84
2021/11/26 08:40:47;;;;;;;14.05;6.38;;;;;;;4.92;79.83;100072.16;5016372;28;20048;-84
2021/11/26 08:43:13;;;;;;;16.17;6.63;;;;;;;4.94;80.21;100063.97;5018766;28;20037;-83
2021/11/26 08:45:39;;;;;;;21.95;6.70;;;;;;;4.92;80.10;100053.59;5015373;28;20036;-84
2021/11/26 08:48:06;;;;;;;16.02;6.72;;;;;;;5.03;79.65;100052.81;5017552;28;20389;-84
2021/11/26 08:50:34;;;;;;;18.85;7.18;;;;;;;5.07;79.47;100055.81;5027583;28;20047;-84
2021/11/26 08:53:02;;;;;;;20.05;6.72;;;;;;;5.11;79.40;100057.78;5028958;28;20071;-83
2021/11/26 08:55:28;;;;;;;19.92;6.97;;;;;;;5.16;78.92;100054.41;5032040;28;20095;-83
2021/11/26 08:57:55;;;;;;;16.05;6.45;;;;;;;5.18;78.60;100051.53;5024896;28;20399;-84
2021/11/26 09:00:30;;;;;;;15.15;6.35;;;;;;;5.15;78.40;100050.97;5024108;28;20021;-83
2021/11/26 09:02:55;;;;;;;;;;;;;;;5.15;78.86;100050.97;5024313;28;20083;-83
2021/11/26 09:05:22;;;;;;;18.08;6.40;;;;;;;5.29;78.90;100045.44;5015862;28;19939;-83
2021/11/26 09:07:48;;;;;;;13.25;6.70;;;;;;;5.23;78.87;100054.34;5020277;28;20033;-83
2021/11/26 09:10:14;;;;;;;15.98;6.63;;;;;;;5.24;78.79;100043.47;5026758;28;21926;-84
2021/11/26 09:12:40;;;;;;;14.23;6.47;;;;;;;5.35;78.41;100044.50;5024066;28;20281;-83
2021/11/26 09:15:06;;;;;;;17.23;6.03;;;;;;;5.41;77.73;100052.38;5024337;28;20057;-83
2021/11/26 09:17:32;;;;;;;16.65;6.70;;;;;;;5.38;77.56;100052.81;5025364;28;20025;-84
2021/11/26 09:19:58;;;;;;;16.80;6.63;;;;;;;5.37;78.08;100051.19;5035290;28;20087;-84
2021/11/26 09:22:23;;;;;;;20.40;6.55;;;;;;;5.37;77.42;100045.09;5016646;28;20033;-84
2021/11/26 09:24:49;;;;;;;16.67;6.20;;;;;;;5.49;77.71;100037.94;5025777;28;20163;-83
2021/11/26 09:27:15;;;;;;;15.55;6.55;;;;;;;5.64;77.44;100038.25;5024908;28;20044;-83
2021/11/26 09:29:44;;;;;;;17.38;7.22;;;;;;;5.70;77.09;100033.84;5015850;28;20548;-84
2021/11/26 09:32:10;;;;;;;15.95;5.88;;;;;;;5.70;76.96;100033.84;5026045;28;20418;-84
2021/11/26 09:34:36;;;;;;;20.17;6.53;;;;;;;5.65;76.34;100031.91;5020604;28;20402;-83
2021/11/26 09:37:02;;;;;;;15.98;6.28;;;;;;;5.91;76.37;100027.16;5025598;28;20025;-84
2021/11/26 09:39:28;;;;;;;15.48;5.75;;;;;;;5.92;76.31;100023.44;5019911;28;20028;-84
2021/11/26 09:41:54;;;;;;;16.88;5.93;;;;;;;5.92;75.76;100018.13;5019009;28;20492;-84
2021/11/26 09:44:20;;;;;;;19.35;6.80;;;;;;;6.01;75.91;100011.41;5020737;28;20292;-84
2021/11/26 09:46:48;;;;;;;14.27;5.38;;;;;;;5.90;75.97;100015.72;5020316;28;20041;-83
2021/11/26 09:49:16;;;;;;;17.20;5.47;;;;;;;6.02;76.00;100015.69;5019603;28;20034;-83
2021/11/26 09:51:42;;;;;;;15.90;6.50;;;;;;;6.07;75.80;100003.28;5016073;28;20453;-83
2021/11/26 09:54:08;;;;;;;16.40;5.85;;;;;;;5.93;75.96;100004.63;5022217;28;20026;-82
2021/11/26 09:56:34;;;;;;;16.20;6.25;;;;;;;5.83;74.85;99995.59;5021154;28;20026;-84
2021/11/26 09:59:00;;;;;;;17.52;6.47;;;;;;;6.12;75.33;99996.47;5011559;28;20624;-83
2021/11/26 10:01:27;;;;;;;16.65;6.57;;;;;;;5.97;75.61;99996.97;5037234;28;20025;-84
2021/11/26 10:03:55;;;;;;;21.05;7.35;;;;;;;5.92;76.02;99988.88;5035080;28;20021;-84
2021/11/26 10:06:40;;;;;;;15.55;6.18;;;;;;;5.92;75.60;99987.03;5025793;28;20021;-84
2021/11/26 10:09:12;;;;;;;15.20;6.82;;;;;;;5.91;76.11;99976.63;5017215;28;20026;-84
2021/11/26 10:11:47;;;;;;;17.15;6.35;;;;;;;5.97;76.36;99975.72;5025694;28;20026;-84
2021/11/26 10:14:16;;;;;;;12.25;6.75;;;;;;;5.68;76.97;99975.63;5017992;28;20053;-83
2021/11/26 10:16:47;;;;;;;17.35;6.22;;;;;;;5.56;77.11;99969.50;5024086;28;20508;-84
2021/11/26 10:19:13;;;;;;;17.10;7.03;;;;;;;5.80;77.22;99970.28;5023837;28;20586;-82
2021/11/26 10:21:39;;;;;;;20.73;8.30;;;;;;;5.85;76.83;99961.59;5023781;28;20083;-82
2021/11/26 10:24:13;;;;;;;29.65;10.00;;;;;;;5.78;76.52;99961.75;5015336;28;20766;-82
2021/11/26 10:26:39;;;;;;;16.42;8.43;;;;;;;5.92;77.05;99957.78;5011920;28;20476;-82
2021/11/26 10:29:05;;;;;;;21.15;8.15;;;;;;;5.78;77.08;99963.59;5022124;28;20664;-83
2021/11/26 10:31:32;;;;;;;20.38;8.45;;;;;;;5.77;76.98;99949.50;5018854;28;20033;-83
2021/11/26 10:34:02;;;;;;;19.90;8.35;;;;;;;5.86;77.11;99948.06;5022330;28;20570;-82
2021/11/26 10:36:28;;;;;;;22.08;7.93;;;;;;;5.93;76.41;99947.97;5023550;28;20068;-82
2021/11/26 10:38:55;;;;;;;16.67;7.82;;;;;;;5.83;76.23;99940.56;5024963;28;20603;-81
2021/11/26 10:41:31;;;;;;;21.55;7.88;;;;;;;6.01;76.38;99943.09;5028316;28;20555;-82
2021/11/26 10:44:07;;;;;;;17.60;7.35;;;;;;;6.06;75.31;99934.38;5037672;28;20033;-81
2021/11/26 11:00:25;;;;;;;15.75;6.75;;;;;;;6.33;73.10;99916.78;5023058;28;20049;-82
2021/11/26 11:02:56;;;;;;;12.32;6.40;;;;;;;6.30;73.57;99911.16;5026109;28;20037;-82
2021/11/26 11:05:25;;;;;;;11.52;6.05;;;;;;;6.03;73.67;99919.72;5044358;28;20018;-82
2021/11/26 11:07:51;;;;;;;17.67;5.65;;;;;;;5.88;74.17;99913.28;5020352;28;20071;-82
2021/11/26 11:10:32;;;;;;;10.95;5.18;;;;;;;5.87;73.29;99904.50;5017360;28;20093;-82
2021/11/26 11:13:07;;;;;;;12.93;6.40;;;;;;;5.99;73.51;99915.13;5025932;28;20048;-84
2021/11/26 11:15:33;;;;;;;11.80;5.47;;;;;;;6.07;73.77;99904.09;5029686;28;20032;-82
2021/11/26 11:17:58;;;;;;;12.90;6.05;;;;;;;6.16;73.31;99894.69;5024409;28;20116;-82
2021/11/26 11:20:25;;;;;;;12.80;5.85;;;;;;;6.25;72.91;99897.75;5025788;28;20025;-82
2021/11/26 11:22:51;;;;;;;12.27;6.18;;;;;;;6.24;72.66;99896.94;5026521;28;20021;-82
2021/11/26 11:25:25;;;;;;;16.70;6.50;;;;;;;6.05;73.63;99893.69;5016017;28;20497;-82
2021/11/26 11:27:54;;;;;;;19.23;6.80;;;;;;;6.21;72.81;99885.97;5016569;28;20022;-82
2021/11/26 11:30:20;;;;;;;17.63;6.00;;;;;;;6.22;72.55;99885.75;5019238;28;20037;-82
2021/11/26 11:32:45;;;;;;;17.35;5.78;;;;;;;6.31;72.45;99878.19;5013997;28;20048;-82
2021/11/26 11:35:12;;;;;;;22.58;7.78;;;;;;;6.15;72.51;99885.09;5018552;28;20029;-83
2021/11/26 11:37:39;;;;;;;14.73;6.50;;;;;;;6.25;72.78;99876.47;5017695;28;20182;-83